Gibsland, Louisiana
Current Conditions -  °F | °C
As of 12:56 PM on Wednesday 26 Nov 2014 (Local Time) from KMNE Reporting Station
Clear Clear  
Wind Chill: 66°   Ceiling: Unl
Heat Index: 66°   Visibility: 10mi
Dew Point: 34°   Wind: 13mph
Humidity: 30%   Direction: 230°SW
Pressure: 30.09"   Gusts: 17mph
Location:  32.54°N, 93.05°W
Report Text: KMNE 261856Z AUTO 23011G15KT 10SM CLR 19/01 A3009 RMK AO2
Loading
Personal Weather Stations






























Interactive Weather Map New forecast layout! Learn more

10-Day Weather Forecast

Advertisements
Track Severe Weather on mobile